createdAt,value
2017-07-31T00:01:47.082Z,11.40
2017-07-31T00:04:16.641Z,6.90
2017-07-31T00:06:45.032Z,15.43
2017-07-31T00:09:14.166Z,16.20
2017-07-31T00:11:44.933Z,8.47
2017-07-31T00:14:13.294Z,8.20
2017-07-31T00:16:41.677Z,11.10
2017-07-31T00:19:10.341Z,16.37
2017-07-31T00:21:38.676Z,14.80
2017-07-31T00:24:06.998Z,5.73
2017-07-31T00:26:35.941Z,11.00
2017-07-31T00:29:04.278Z,12.70
2017-07-31T00:31:33.669Z,12.60
2017-07-31T00:34:02.059Z,11.53
2017-07-31T00:36:30.376Z,26.70
2017-07-31T00:38:58.711Z,10.50
2017-07-31T00:41:27.574Z,18.93
2017-07-31T00:43:56.156Z,17.43
2017-07-31T00:46:25.496Z,12.00
2017-07-31T00:48:54.550Z,23.73
2017-07-31T00:51:23.171Z,7.97
2017-07-31T00:53:51.788Z,6.73
2017-07-31T00:56:20.776Z,10.40
2017-07-31T00:58:49.330Z,10.30
2017-07-31T01:01:17.871Z,12.83
2017-07-31T01:03:47.333Z,14.33
2017-07-31T01:06:16.980Z,13.83
2017-07-31T01:08:46.095Z,12.50
2017-07-31T01:11:15.314Z,10.83
2017-07-31T01:13:44.524Z,11.87
2017-07-31T01:16:14.508Z,9.63
2017-07-31T01:18:44.966Z,10.23
2017-07-31T01:21:15.147Z,12.33
2017-07-31T01:23:44.759Z,11.00
2017-07-31T01:26:14.059Z,11.33
2017-07-31T01:28:43.232Z,11.73
2017-07-31T01:31:12.389Z,17.23
2017-07-31T01:33:43.275Z,13.93
2017-07-31T01:36:13.005Z,9.40
2017-07-31T01:38:43.337Z,24.50
2017-07-31T01:41:13.193Z,12.13
2017-07-31T01:43:42.063Z,15.17
2017-07-31T01:46:10.556Z,14.20
2017-07-31T01:48:40.093Z,10.40
2017-07-31T01:51:08.517Z,10.67
2017-07-31T01:53:36.892Z,10.57
2017-07-31T01:56:05.888Z,11.03
2017-07-31T01:58:34.202Z,6.63
2017-07-31T02:01:03.286Z,12.53
2017-07-31T02:03:32.714Z,14.07
2017-07-31T02:06:01.038Z,16.20
2017-07-31T02:08:29.418Z,4.90
2017-07-31T02:10:58.237Z,10.80
2017-07-31T02:13:26.568Z,14.13
2017-07-31T02:15:56.051Z,9.83
2017-07-31T02:18:25.250Z,9.20
2017-07-31T02:20:53.694Z,19.77
2017-07-31T02:23:22.125Z,22.60
2017-07-31T02:25:51.536Z,15.77
2017-07-31T02:28:19.991Z,12.93
2017-07-31T02:30:49.414Z,18.43
2017-07-31T02:33:18.425Z,14.00
2017-07-31T02:35:46.839Z,10.53
2017-07-31T02:38:15.358Z,13.20
2017-07-31T02:40:44.930Z,26.77
2017-07-31T02:43:13.455Z,16.20
2017-07-31T02:45:42.132Z,30.47
2017-07-31T02:48:11.096Z,21.43
2017-07-31T02:50:39.466Z,29.17
2017-07-31T02:53:07.791Z,15.90
2017-07-31T02:55:36.337Z,17.50
2017-07-31T02:58:05.288Z,12.13
2017-07-31T03:00:33.635Z,12.93
2017-07-31T03:03:03.573Z,15.40
2017-07-31T03:05:31.901Z,11.50
2017-07-31T03:08:00.205Z,8.00
2017-07-31T03:10:28.754Z,22.47
2017-07-31T03:12:57.114Z,10.73
2017-07-31T03:15:25.548Z,26.30
2017-07-31T03:17:55.852Z,19.43
2017-07-31T03:20:24.937Z,16.13
2017-07-31T03:22:54.080Z,8.03
2017-07-31T03:25:23.410Z,16.57
2017-07-31T03:27:51.946Z,24.30
2017-07-31T03:30:20.751Z,17.90
2017-07-31T03:32:49.409Z,11.40
2017-07-31T03:35:18.109Z,8.80
2017-07-31T03:37:46.726Z,14.50
2017-07-31T03:40:16.737Z,19.03
2017-07-31T03:42:45.941Z,25.23
2017-07-31T03:45:16.443Z,9.77
2017-07-31T03:47:47.024Z,8.50
2017-07-31T03:50:38.477Z,18.13
2017-07-31T03:53:08.142Z,10.10
2017-07-31T03:55:36.527Z,20.10
2017-07-31T03:58:05.649Z,9.70
2017-07-31T04:00:34.636Z,14.90
2017-07-31T04:03:02.981Z,12.60
2017-07-31T04:05:31.365Z,9.20
2017-07-31T04:07:59.952Z,10.30
2017-07-31T04:10:28.275Z,16.33
2017-07-31T04:12:57.640Z,24.27
2017-07-31T04:15:26.333Z,21.67
2017-07-31T04:17:55.376Z,10.83
2017-07-31T04:20:23.903Z,15.90
2017-07-31T04:22:53.072Z,18.10
2017-07-31T04:25:21.549Z,14.43
2017-07-31T04:27:50.340Z,13.97
2017-07-31T04:30:19.012Z,10.07
2017-07-31T04:32:47.745Z,6.80
2017-07-31T04:35:16.734Z,11.53
2017-07-31T04:37:47.266Z,19.67
2017-07-31T04:40:16.605Z,13.50
2017-07-31T04:42:46.305Z,16.67
2017-07-31T04:45:17.126Z,27.50
2017-07-31T04:47:46.818Z,15.57
2017-07-31T04:50:16.089Z,21.17
2017-07-31T04:52:45.438Z,26.70
2017-07-31T04:55:14.586Z,17.50
2017-07-31T04:57:45.152Z,17.17
2017-07-31T05:00:15.512Z,15.70
2017-07-31T05:02:44.320Z,27.67
2017-07-31T05:05:14.638Z,22.47
2017-07-31T05:07:44.338Z,21.87
2017-07-31T05:10:13.272Z,17.87
2017-07-31T05:12:42.078Z,14.17
2017-07-31T05:15:10.964Z,13.77
2017-07-31T05:17:39.465Z,13.40
2017-07-31T05:20:07.881Z,20.93
2017-07-31T05:22:36.509Z,12.50
2017-07-31T05:25:04.839Z,14.77
2017-07-31T05:27:33.928Z,19.07
2017-07-31T05:30:03.125Z,17.07
2017-07-31T05:32:31.463Z,15.03
2017-07-31T05:35:01.561Z,17.40
2017-07-31T05:37:30.697Z,13.90
2017-07-31T05:39:59.031Z,14.33
2017-07-31T05:42:27.390Z,16.70
2017-07-31T05:44:55.813Z,10.50
2017-07-31T05:47:24.246Z,10.67
2017-07-31T05:49:52.693Z,8.23
2017-07-31T05:52:21.574Z,9.63
2017-07-31T05:54:51.071Z,7.40
2017-07-31T05:57:19.602Z,17.17
2017-07-31T05:59:48.588Z,14.90
2017-07-31T06:02:17.267Z,10.40
2017-07-31T06:04:46.068Z,8.53
2017-07-31T06:07:15.383Z,6.90
2017-07-31T06:09:44.079Z,10.47
2017-07-31T06:12:13.135Z,7.77
2017-07-31T06:14:42.237Z,5.20
2017-07-31T06:17:10.957Z,4.63
2017-07-31T06:19:39.593Z,6.83
2017-07-31T06:22:08.290Z,5.93
2017-07-31T06:24:36.701Z,7.83
2017-07-31T06:27:05.032Z,8.40
2017-07-31T06:29:34.348Z,7.23
2017-07-31T06:32:03.156Z,8.07
2017-07-31T06:34:31.540Z,4.43
2017-07-31T06:37:00.196Z,9.13
2017-07-31T06:39:28.528Z,6.17
2017-07-31T06:41:56.824Z,8.43
2017-07-31T06:44:25.757Z,7.43
2017-07-31T06:46:54.196Z,6.90
2017-07-31T06:49:22.725Z,8.40
2017-07-31T06:51:51.709Z,15.77
2017-07-31T06:54:20.147Z,15.77
2017-07-31T06:56:49.410Z,4.77
2017-07-31T06:59:18.381Z,7.33
2017-07-31T07:01:47.463Z,18.00
2017-07-31T07:04:17.011Z,6.87
2017-07-31T07:06:45.619Z,10.07
2017-07-31T07:09:15.118Z,5.73
2017-07-31T07:11:44.689Z,5.37
2017-07-31T07:14:15.148Z,3.37
2017-07-31T07:16:45.032Z,9.73
2017-07-31T07:19:17.000Z,4.23
2017-07-31T07:21:45.699Z,7.03
2017-07-31T07:24:14.270Z,13.73
2017-07-31T07:26:43.509Z,5.30
2017-07-31T07:29:12.195Z,4.70
2017-07-31T07:31:40.560Z,8.60
2017-07-31T07:34:11.898Z,9.93
2017-07-31T07:36:40.351Z,5.33
2017-07-31T07:39:08.802Z,7.57
2017-07-31T07:41:37.489Z,5.80
2017-07-31T07:44:05.864Z,9.63
2017-07-31T07:46:34.296Z,8.00
2017-07-31T07:49:04.482Z,5.77
2017-07-31T07:51:32.796Z,3.50
2017-07-31T07:54:01.109Z,6.80
2017-07-31T07:56:29.820Z,9.13
2017-07-31T07:58:58.179Z,11.60
2017-07-31T08:01:26.516Z,5.73
2017-07-31T08:03:55.493Z,4.90
2017-07-31T08:06:24.669Z,7.80
2017-07-31T08:08:53.198Z,6.50
2017-07-31T08:11:22.969Z,3.47
2017-07-31T08:13:51.379Z,1.80
2017-07-31T08:16:20.784Z,2.93
2017-07-31T08:18:49.532Z,6.10
2017-07-31T08:21:19.271Z,4.47
2017-07-31T08:23:48.447Z,2.80
2017-07-31T08:26:17.503Z,7.77
2017-07-31T08:28:46.529Z,4.63
2017-07-31T08:31:15.418Z,3.50
2017-07-31T08:33:46.083Z,4.10
2017-07-31T08:36:15.730Z,4.40
2017-07-31T08:38:44.366Z,6.37
2017-07-31T08:41:14.409Z,5.73
2017-07-31T08:43:44.429Z,2.37
2017-07-31T08:46:13.756Z,3.67
2017-07-31T08:48:42.737Z,3.13
2017-07-31T08:51:11.846Z,5.23
2017-07-31T08:53:40.327Z,2.20
2017-07-31T08:56:09.421Z,1.57
2017-07-31T08:58:37.927Z,2.20
2017-07-31T09:01:07.046Z,4.17
2017-07-31T09:03:38.619Z,1.50
2017-07-31T09:06:07.367Z,5.73
2017-07-31T09:08:35.836Z,7.33
2017-07-31T09:11:05.325Z,1.53
2017-07-31T09:13:33.621Z,3.60
2017-07-31T09:16:01.980Z,7.20
2017-07-31T09:18:32.119Z,3.47
2017-07-31T09:21:00.494Z,22.83
2017-07-31T09:23:29.431Z,1.60
2017-07-31T09:25:59.313Z,5.00
2017-07-31T09:28:27.810Z,2.13
2017-07-31T09:30:56.554Z,1.63
2017-07-31T09:33:25.977Z,3.80
2017-07-31T09:35:56.499Z,5.20
2017-07-31T09:38:25.129Z,7.30
2017-07-31T09:40:55.823Z,8.87
2017-07-31T09:43:24.541Z,4.10
2017-07-31T09:45:53.371Z,2.70
2017-07-31T09:48:23.722Z,2.77
2017-07-31T09:50:52.551Z,2.03
2017-07-31T09:53:21.298Z,6.30
2017-07-31T09:55:50.334Z,4.87
2017-07-31T09:58:19.085Z,15.33
2017-07-31T10:00:47.971Z,2.23
2017-07-31T10:03:17.460Z,4.30
2017-07-31T10:05:47.064Z,6.80
2017-07-31T10:08:16.160Z,5.33
2017-07-31T10:10:45.412Z,10.23
2017-07-31T10:13:14.484Z,1.93
2017-07-31T10:15:43.804Z,3.93
2017-07-31T10:18:13.999Z,3.73
2017-07-31T10:20:43.426Z,7.70
2017-07-31T10:23:12.114Z,4.70
2017-07-31T10:25:42.431Z,4.97
2017-07-31T10:28:13.571Z,5.57
2017-07-31T10:30:43.469Z,1.70
2017-07-31T10:33:13.969Z,6.83
2017-07-31T10:35:44.555Z,1.83
2017-07-31T10:38:13.623Z,2.40
2017-07-31T10:40:42.437Z,4.10
2017-07-31T10:43:13.599Z,1.83
2017-07-31T10:45:42.283Z,2.60
2017-07-31T10:48:13.769Z,2.10
2017-07-31T10:50:44.910Z,3.03
2017-07-31T10:53:15.407Z,2.60
2017-07-31T10:55:44.253Z,4.63
2017-07-31T10:58:13.674Z,4.57
2017-07-31T11:00:43.386Z,2.97
2017-07-31T11:03:13.213Z,1.50
2017-07-31T11:05:42.434Z,3.00
2017-07-31T11:08:10.869Z,4.20
2017-07-31T11:10:39.265Z,6.50
2017-07-31T11:13:07.813Z,1.53
2017-07-31T11:15:36.137Z,4.57
2017-07-31T11:18:05.229Z,2.10
2017-07-31T11:20:36.022Z,3.80
2017-07-31T11:23:04.344Z,3.00
2017-07-31T11:25:32.880Z,10.60
2017-07-31T11:28:01.716Z,4.50
2017-07-31T11:30:31.064Z,4.00
2017-07-31T11:32:59.423Z,2.77
2017-07-31T11:35:28.529Z,1.90
2017-07-31T11:37:56.868Z,1.73
2017-07-31T11:40:25.665Z,7.23
2017-07-31T11:42:54.090Z,4.67
2017-07-31T11:45:22.503Z,3.13
2017-07-31T11:47:51.081Z,3.37
2017-07-31T11:50:20.660Z,2.93
2017-07-31T11:52:49.185Z,2.40
2017-07-31T11:55:17.647Z,5.87
2017-07-31T11:57:46.570Z,4.10
2017-07-31T12:00:15.854Z,3.70
2017-07-31T12:02:45.399Z,2.30
2017-07-31T12:05:14.229Z,2.47
2017-07-31T12:07:43.150Z,2.10
2017-07-31T12:10:11.724Z,1.40
2017-07-31T12:12:40.452Z,3.00
2017-07-31T12:15:08.900Z,1.83
2017-07-31T12:17:37.278Z,7.17
2017-07-31T12:20:07.634Z,5.70
2017-07-31T12:22:36.730Z,2.17
2017-07-31T12:25:05.109Z,2.13
2017-07-31T12:27:33.694Z,2.23
2017-07-31T12:30:02.020Z,2.10
2017-07-31T12:32:30.456Z,2.50
2017-07-31T12:34:58.858Z,2.20
2017-07-31T12:37:27.546Z,11.27
2017-07-31T12:39:56.204Z,6.10
2017-07-31T12:42:25.480Z,4.20
2017-07-31T12:44:54.386Z,1.90
2017-07-31T12:47:23.130Z,3.50
2017-07-31T12:49:52.261Z,7.93
2017-07-31T12:52:22.377Z,3.33
2017-07-31T12:54:51.147Z,3.03
2017-07-31T12:57:20.266Z,3.63
2017-07-31T12:59:48.738Z,2.33
2017-07-31T13:02:17.917Z,2.70
2017-07-31T13:04:46.638Z,8.27
2017-07-31T13:07:15.165Z,2.87
2017-07-31T13:09:44.133Z,3.80
2017-07-31T13:12:13.475Z,3.50
2017-07-31T13:14:42.347Z,1.53
2017-07-31T13:17:10.794Z,2.70
2017-07-31T13:19:39.378Z,2.07
2017-07-31T13:22:07.735Z,2.20
2017-07-31T13:24:36.235Z,10.23
2017-07-31T13:27:06.408Z,4.70
2017-07-31T13:29:34.740Z,3.77
2017-07-31T13:32:03.145Z,1.80
2017-07-31T13:34:32.629Z,1.50
2017-07-31T13:37:01.247Z,1.53
2017-07-31T13:39:29.601Z,10.90
2017-07-31T13:41:59.287Z,4.97
2017-07-31T13:44:28.416Z,1.83
2017-07-31T13:46:56.841Z,1.63
2017-07-31T13:49:25.764Z,3.03
2017-07-31T13:51:54.297Z,1.37
2017-07-31T13:54:22.970Z,2.10
2017-07-31T13:56:52.230Z,3.30
2017-07-31T13:59:20.916Z,1.90
2017-07-31T14:01:49.440Z,7.70
2017-07-31T14:04:18.566Z,2.20
2017-07-31T14:06:47.027Z,6.00
2017-07-31T14:09:15.533Z,2.83
2017-07-31T14:11:44.525Z,2.60
2017-07-31T14:14:13.397Z,6.77
2017-07-31T14:16:41.889Z,2.23
2017-07-31T14:19:12.102Z,3.17
2017-07-31T14:21:40.789Z,2.70
2017-07-31T14:24:09.379Z,1.60
2017-07-31T14:26:39.468Z,1.93
2017-07-31T14:29:07.845Z,2.83
2017-07-31T14:31:36.181Z,2.60
2017-07-31T14:34:06.069Z,3.93
2017-07-31T14:36:35.140Z,5.00
2017-07-31T14:39:03.534Z,3.67
2017-07-31T14:41:32.359Z,2.90
2017-07-31T14:44:00.681Z,3.97
2017-07-31T14:46:29.030Z,5.97
2017-07-31T14:48:58.313Z,5.60
2017-07-31T14:51:26.856Z,1.27
2017-07-31T14:53:56.336Z,6.13
2017-07-31T14:56:25.272Z,3.17
2017-07-31T14:58:53.836Z,2.33
2017-07-31T15:01:22.479Z,1.67
2017-07-31T15:03:51.424Z,4.50
2017-07-31T15:06:19.875Z,3.07
2017-07-31T15:08:48.973Z,5.90
2017-07-31T15:11:20.947Z,1.90
2017-07-31T15:13:49.435Z,2.50
2017-07-31T15:16:18.390Z,1.60
2017-07-31T15:18:47.990Z,3.00
2017-07-31T15:21:18.136Z,4.30
2017-07-31T15:23:47.552Z,2.00
2017-07-31T15:26:16.519Z,2.50
2017-07-31T15:28:45.480Z,7.67
2017-07-31T15:31:14.557Z,5.83
2017-07-31T15:33:44.983Z,2.90
2017-07-31T15:36:15.280Z,2.30
2017-07-31T15:38:45.126Z,3.73
2017-07-31T15:41:16.341Z,2.00
2017-07-31T15:43:45.897Z,10.23
2017-07-31T15:46:15.395Z,2.20
2017-07-31T15:48:46.282Z,2.90
2017-07-31T15:51:15.639Z,3.10
2017-07-31T15:53:44.445Z,7.13
2017-07-31T15:56:13.569Z,2.17
2017-07-31T15:58:42.597Z,7.83
2017-07-31T16:01:11.286Z,7.30
2017-07-31T16:03:40.004Z,3.80
2017-07-31T16:06:09.263Z,4.80
2017-07-31T16:08:37.796Z,2.10
2017-07-31T16:11:06.777Z,3.53
2017-07-31T16:13:35.143Z,7.97
2017-07-31T16:16:03.811Z,1.93
2017-07-31T16:18:32.700Z,8.03
2017-07-31T16:21:01.080Z,5.97
2017-07-31T16:23:29.626Z,4.10
2017-07-31T16:25:58.434Z,5.37
2017-07-31T16:28:27.956Z,7.40
2017-07-31T16:30:56.573Z,12.37
2017-07-31T16:33:25.737Z,7.00
2017-07-31T16:35:54.214Z,6.30
2017-07-31T16:38:28.592Z,3.33
2017-07-31T16:40:57.005Z,6.33
2017-07-31T16:43:37.395Z,3.60
2017-07-31T16:46:17.674Z,8.30
2017-07-31T16:48:47.390Z,4.60
2017-07-31T16:51:16.114Z,3.40
2017-07-31T16:53:44.943Z,3.30
2017-07-31T16:56:15.131Z,3.50
2017-07-31T16:58:44.219Z,5.87
2017-07-31T17:01:13.792Z,5.13
2017-07-31T17:03:44.501Z,3.83
2017-07-31T17:06:13.456Z,2.60
2017-07-31T17:08:42.229Z,7.10
2017-07-31T17:11:11.137Z,7.13
2017-07-31T17:13:39.497Z,6.50
2017-07-31T17:16:07.919Z,8.07
2017-07-31T17:18:36.932Z,3.73
2017-07-31T17:21:05.243Z,4.80
2017-07-31T17:23:34.359Z,4.10
2017-07-31T17:26:02.941Z,3.10
2017-07-31T17:28:31.291Z,3.63
2017-07-31T17:30:59.625Z,5.60
2017-07-31T17:33:28.965Z,2.90
2017-07-31T17:35:58.299Z,4.17
2017-07-31T17:38:26.853Z,9.03
2017-07-31T17:40:56.491Z,5.23
2017-07-31T17:43:26.159Z,4.37
2017-07-31T17:45:55.550Z,6.53
2017-07-31T17:48:24.780Z,4.50
2017-07-31T17:50:53.895Z,7.73
2017-07-31T17:53:23.149Z,7.13
2017-07-31T17:55:52.492Z,6.33
2017-07-31T17:58:21.056Z,15.10
2017-07-31T18:00:49.518Z,4.27
2017-07-31T18:03:18.712Z,9.27
2017-07-31T18:05:47.194Z,3.60
2017-07-31T18:08:15.777Z,2.67
2017-07-31T18:10:46.083Z,4.20
2017-07-31T18:13:14.555Z,7.13
2017-07-31T18:15:43.453Z,6.77
2017-07-31T18:18:12.990Z,11.43
2017-07-31T18:20:42.405Z,5.07
2017-07-31T18:23:10.758Z,5.50
2017-07-31T18:25:39.715Z,6.90
2017-07-31T18:28:08.861Z,6.50
2017-07-31T18:30:37.201Z,3.20
2017-07-31T18:33:05.730Z,6.63
2017-07-31T18:35:34.066Z,11.63
2017-07-31T18:38:02.428Z,5.17
2017-07-31T18:40:31.130Z,7.53
2017-07-31T18:42:59.468Z,4.30
2017-07-31T18:45:28.234Z,5.80
2017-07-31T18:47:57.057Z,10.60
2017-07-31T18:50:25.572Z,13.97
2017-07-31T18:52:55.092Z,12.20
2017-07-31T18:55:24.054Z,16.53
2017-07-31T18:57:52.409Z,10.43
2017-07-31T19:00:22.608Z,19.73
2017-07-31T19:02:51.689Z,10.13
2017-07-31T19:05:20.930Z,15.33
2017-07-31T19:07:50.210Z,4.97
2017-07-31T19:10:18.941Z,12.87
2017-07-31T19:12:47.580Z,8.87
2017-07-31T19:15:17.021Z,14.20
2017-07-31T19:17:45.953Z,12.60
2017-07-31T19:20:15.221Z,7.63
2017-07-31T19:22:44.644Z,16.83
2017-07-31T19:25:13.601Z,13.03
2017-07-31T19:27:43.884Z,18.70
2017-07-31T19:30:13.467Z,7.03
2017-07-31T19:32:42.587Z,22.33
2017-07-31T19:35:11.835Z,6.63
2017-07-31T19:37:40.230Z,8.73
2017-07-31T19:40:09.822Z,8.17
2017-07-31T19:42:38.216Z,9.67
2017-07-31T19:45:06.573Z,6.50
2017-07-31T19:47:36.791Z,8.20
2017-07-31T19:50:05.114Z,7.57
2017-07-31T19:52:33.549Z,14.63
2017-07-31T19:55:02.446Z,13.77
2017-07-31T19:57:31.698Z,7.03
2017-07-31T20:00:00.067Z,8.23
2017-07-31T20:02:29.117Z,11.63
2017-07-31T20:04:57.493Z,13.00
2017-07-31T20:07:25.926Z,8.63
2017-07-31T20:09:54.713Z,9.60
2017-07-31T20:12:23.194Z,6.60
2017-07-31T20:14:52.032Z,12.27
2017-07-31T20:17:22.130Z,14.17
2017-07-31T20:19:51.525Z,8.83
2017-07-31T20:22:20.039Z,8.53
2017-07-31T20:24:49.061Z,13.20
2017-07-31T20:27:17.496Z,16.93
2017-07-31T20:29:45.968Z,14.67
2017-07-31T20:32:15.526Z,14.53
2017-07-31T20:34:44.229Z,10.47
2017-07-31T20:37:13.708Z,7.80
2017-07-31T20:39:42.678Z,17.23
2017-07-31T20:42:11.838Z,17.17
2017-07-31T20:44:40.197Z,12.93
2017-07-31T20:47:09.943Z,13.43
2017-07-31T20:49:39.205Z,12.73
2017-07-31T20:52:07.570Z,12.13
2017-07-31T20:54:36.480Z,11.53
2017-07-31T20:57:04.799Z,14.03
2017-07-31T20:59:33.168Z,9.47
2017-07-31T21:02:02.571Z,12.13
2017-07-31T21:04:31.130Z,8.20
2017-07-31T21:06:59.481Z,7.83
2017-07-31T21:09:28.167Z,17.23
2017-07-31T21:11:56.572Z,8.03
2017-07-31T21:14:24.989Z,7.70
2017-07-31T21:16:53.557Z,5.60
2017-07-31T21:19:22.063Z,12.97
2017-07-31T21:21:50.555Z,10.40
2017-07-31T21:24:19.540Z,8.47
2017-07-31T21:26:48.766Z,10.60
2017-07-31T21:29:17.476Z,5.37
2017-07-31T21:31:47.309Z,6.30
2017-07-31T21:34:16.837Z,10.40
2017-07-31T21:36:45.602Z,8.97
2017-07-31T21:39:14.835Z,8.30
2017-07-31T21:41:43.647Z,9.27
2017-07-31T21:44:12.103Z,6.77
2017-07-31T21:46:40.890Z,8.50
2017-07-31T21:49:09.374Z,8.90
2017-07-31T21:51:38.515Z,10.67
2017-07-31T21:54:07.120Z,5.17
2017-07-31T21:56:35.518Z,6.93
2017-07-31T21:59:05.614Z,11.10
2017-07-31T22:01:34.248Z,9.87
2017-07-31T22:04:02.586Z,13.60
2017-07-31T22:06:30.892Z,10.00
2017-07-31T22:08:59.763Z,8.83
2017-07-31T22:11:28.171Z,8.63
2017-07-31T22:13:57.301Z,24.17
2017-07-31T22:16:32.570Z,10.03
2017-07-31T22:19:01.739Z,4.63
2017-07-31T22:21:36.303Z,5.90
2017-07-31T22:24:04.633Z,7.70
2017-07-31T22:26:34.759Z,6.97
2017-07-31T22:29:03.105Z,9.83
2017-07-31T22:31:31.485Z,6.43
2017-07-31T22:33:59.869Z,10.33
2017-07-31T22:36:28.665Z,8.47
2017-07-31T22:38:57.002Z,10.23
2017-07-31T22:41:25.325Z,9.80
2017-07-31T22:43:54.870Z,12.57
2017-07-31T22:46:23.216Z,9.80
2017-07-31T22:48:51.631Z,7.60
2017-07-31T22:51:20.215Z,15.23
2017-07-31T22:53:48.667Z,12.00
2017-07-31T22:56:17.785Z,8.70
2017-07-31T22:58:46.749Z,8.50
2017-07-31T23:01:15.245Z,6.90
2017-07-31T23:03:43.823Z,17.43
2017-07-31T23:06:12.358Z,11.40
2017-07-31T23:08:40.705Z,8.23
2017-07-31T23:11:09.220Z,13.20
2017-07-31T23:13:38.608Z,11.50
2017-07-31T23:16:06.937Z,17.00
2017-07-31T23:18:35.257Z,7.90
2017-07-31T23:21:03.845Z,10.27
2017-07-31T23:23:32.928Z,14.60
2017-07-31T23:26:02.022Z,9.80
2017-07-31T23:28:30.721Z,8.77
2017-07-31T23:30:59.093Z,10.20
2017-07-31T23:33:28.432Z,8.50
2017-07-31T23:35:58.161Z,10.40
2017-07-31T23:38:26.493Z,6.13
2017-07-31T23:40:54.821Z,17.87
2017-07-31T23:43:23.549Z,10.13
2017-07-31T23:45:51.889Z,14.67
2017-07-31T23:48:20.413Z,16.70
2017-07-31T23:50:49.876Z,29.83
2017-07-31T23:53:18.279Z,8.70
2017-07-31T23:55:47.651Z,11.93
2017-07-31T23:58:17.159Z,8.30
